Time;durP1;ratioP1;P1;durP2;ratioP2;P2;SDS_P1;SDS_P2;PMS_P1;PMS_P2;Temp;Humidity;BMP_temperature;BMP_pressure;BME280_temperature;BME280_humidity;BME280_pressure;Samples;Min_cycle;Max_cycle;Signal;HPM_P1;HPM_P2
2023/02/13 00:01:25;;;;;;;1.00;0.47;;;;;;;-1.07;66.74;102254.13;1917720;74;21514;-41
2023/02/13 00:03:54;;;;;;;1.05;0.65;;;;;;;-1.10;66.82;102252.77;1919401;74;21024;-42
2023/02/13 00:06:23;;;;;;;1.45;0.50;;;;;;;-1.07;66.82;102259.30;1902077;75;21067;-43
2023/02/13 00:08:52;;;;;;;2.50;0.60;;;;;;;-1.05;66.75;102255.05;1904408;75;21052;-41
2023/02/13 00:11:21;;;;;;;1.07;0.50;;;;;;;-1.01;66.65;102265.98;1909045;74;21439;-43
2023/02/13 00:13:49;;;;;;;1.98;0.30;;;;;;;-0.98;66.59;102254.44;1905135;75;21033;-43
2023/02/13 00:16:18;;;;;;;0.53;0.53;;;;;;;-1.01;66.62;102258.23;1932871;74;21036;-44
2023/02/13 00:18:47;;;;;;;4.55;0.78;;;;;;;-1.01;66.50;102255.23;1916090;74;21005;-44
2023/02/13 00:21:15;;;;;;;2.47;0.88;;;;;;;-1.00;66.44;102258.29;1905198;74;21079;-43
2023/02/13 00:23:44;;;;;;;3.02;0.82;;;;;;;-1.00;66.37;102259.98;1903967;74;21153;-42
2023/02/13 00:26:15;;;;;;;1.35;0.68;;;;;;;-0.99;66.21;102259.16;1903909;74;21016;-43
2023/02/13 00:28:45;;;;;;;2.98;0.80;;;;;;;-1.02;66.20;102256.47;1927976;74;21102;-44
2023/02/13 00:31:20;;;;;;;1.50;0.65;;;;;;;-1.03;66.17;102261.19;1933701;74;21109;-42
2023/02/13 00:33:50;;;;;;;2.95;0.50;;;;;;;-1.12;66.32;102259.17;1918887;74;21145;-43
2023/02/13 00:36:21;;;;;;;3.02;0.88;;;;;;;-1.08;66.39;102262.73;1918470;74;21039;-41
2023/02/13 00:38:50;;;;;;;4.03;0.78;;;;;;;-1.06;66.34;102264.95;1904864;74;21098;-43
2023/02/13 00:41:21;;;;;;;7.12;1.30;;;;;;;-1.06;66.37;102266.25;1904882;75;21064;-40
2023/02/13 00:43:51;;;;;;;5.25;1.35;;;;;;;-1.06;66.41;102268.41;1906028;74;21479;-40
2023/02/13 00:46:20;;;;;;;1.05;0.70;;;;;;;-1.03;66.36;102262.48;1905129;75;21092;-43
2023/02/13 00:48:49;;;;;;;1.02;0.60;;;;;;;-1.03;66.33;102263.34;1932301;74;21052;-41
2023/02/13 00:51:18;;;;;;;4.12;0.90;;;;;;;-1.03;66.39;102267.66;1904149;74;21043;-40
2023/02/13 00:53:46;;;;;;;1.10;0.95;;;;;;;-1.03;66.40;102262.48;1921446;74;21028;-42
2023/02/13 00:56:16;;;;;;;0.80;0.62;;;;;;;-0.98;66.34;102270.85;1909608;74;21521;-42
2023/02/13 00:58:45;;;;;;;4.10;0.90;;;;;;;-0.93;66.26;102259.77;1903684;74;21520;-42
2023/02/13 01:01:14;;;;;;;5.75;1.15;;;;;;;-0.93;66.23;102272.28;1935688;74;21146;-43
2023/02/13 01:03:43;;;;;;;7.40;0.90;;;;;;;-0.97;66.37;102258.80;1930640;74;21285;-43
2023/02/13 01:06:12;;;;;;;1.72;0.62;;;;;;;-0.96;66.43;102264.41;1902895;74;21554;-45
2023/02/13 01:08:41;;;;;;;4.03;0.90;;;;;;;-0.95;66.44;102275.23;1907393;74;21087;-42
2023/02/13 01:11:10;;;;;;;0.75;0.50;;;;;;;-0.91;66.38;102268.03;1905441;75;21000;-43
2023/02/13 01:13:39;;;;;;;1.50;0.80;;;;;;;-0.90;66.29;102264.63;1907790;74;21549;-46
2023/02/13 01:16:07;;;;;;;0.95;0.80;;;;;;;-0.89;66.21;102271.97;1935640;74;21000;-45
2023/02/13 01:18:36;;;;;;;2.22;0.98;;;;;;;-0.90;66.21;102274.98;1911253;74;21125;-44
2023/02/13 01:21:08;;;;;;;4.50;1.10;;;;;;;-0.89;66.17;102280.59;1902416;74;21132;-43
2023/02/13 01:23:38;;;;;;;5.83;1.10;;;;;;;-0.88;66.12;102281.07;1903213;74;21048;-46
2023/02/13 01:26:10;;;;;;;1.57;1.00;;;;;;;-0.87;66.06;102282.81;1902276;75;21071;-39
2023/02/13 01:28:38;;;;;;;2.17;0.50;;;;;;;-0.89;66.19;102282.31;1908769;74;21538;-41
2023/02/13 01:31:07;;;;;;;1.32;0.90;;;;;;;-0.90;66.25;102289.20;1916977;74;21568;-40
2023/02/13 01:33:36;;;;;;;4.73;0.70;;;;;;;-0.92;66.30;102293.84;1903592;74;21056;-41
2023/02/13 01:36:10;;;;;;;1.22;0.80;;;;;;;-0.92;66.39;102297.33;1905123;75;21032;-40
2023/02/13 01:38:39;;;;;;;1.40;0.90;;;;;;;-0.93;66.38;102304.60;1902178;75;21139;-39
2023/02/13 01:41:09;;;;;;;2.35;0.82;;;;;;;-0.96;66.40;102310.95;1903369;75;21491;-39
2023/02/13 01:43:55;;;;;;;1.70;0.88;;;;;;;-0.99;66.50;102310.88;1905289;74;21432;-39
2023/02/13 01:46:29;;;;;;;0.68;0.60;;;;;;;-0.98;66.45;102304.85;1904633;74;21439;-39
2023/02/13 01:49:00;;;;;;;0.90;0.72;;;;;;;-0.98;66.35;102304.85;1924754;74;21052;-40
2023/02/13 01:51:32;;;;;;;4.58;1.02;;;;;;;-0.98;66.13;102312.61;1901752;75;21039;-39
2023/02/13 01:54:03;;;;;;;3.08;1.10;;;;;;;-1.04;66.02;102313.71;1902218;74;21047;-39
2023/02/13 01:56:38;;;;;;;2.83;0.85;;;;;;;-1.10;66.02;102313.09;1901977;74;21067;-39
2023/02/13 01:59:11;;;;;;;0.70;0.70;;;;;;;-1.09;66.04;102321.72;1912273;74;21063;-39
2023/02/13 02:01:40;;;;;;;2.08;1.35;;;;;;;-1.09;66.06;102325.59;1915331;74;21113;-39
2023/02/13 02:04:12;;;;;;;1.25;0.50;;;;;;;-1.11;66.14;102331.13;1903071;75;21044;-39
2023/02/13 02:06:44;;;;;;;2.87;1.20;;;;;;;-1.12;66.25;102325.09;1905015;74;21060;-40
2023/02/13 02:09:17;;;;;;;3.58;0.62;;;;;;;-1.09;66.15;102328.17;1905138;74;21453;-40
2023/02/13 02:12:06;;;;;;;2.22;0.80;;;;;;;-1.05;66.08;102322.28;1904982;75;21174;-42
2023/02/13 02:14:36;;;;;;;3.30;0.75;;;;;;;-1.04;65.94;102322.76;1922709;74;21504;-43
2023/02/13 02:17:07;;;;;;;3.47;0.85;;;;;;;-1.08;65.74;102324.36;1908928;74;21137;-41
2023/02/13 02:19:41;;;;;;;1.87;0.60;;;;;;;-1.09;65.79;102324.30;1902548;74;21106;-41
2023/02/13 02:22:25;;;;;;;1.15;0.80;;;;;;;-1.05;65.62;102332.23;1903919;74;21141;-42
2023/02/13 02:25:09;;;;;;;5.10;0.70;;;;;;;-1.08;65.48;102337.70;1905369;74;21105;-40
2023/02/13 02:28:02;;;;;;;3.30;1.25;;;;;;;-1.11;65.35;102349.22;1868457;74;21060;-41
2023/02/13 02:30:56;;;;;;;4.05;0.78;;;;;;;-1.13;65.32;102356.05;1910832;74;21060;-40
2023/02/13 02:33:35;;;;;;;;;;;;;;;-1.14;65.18;102360.34;1906088;74;21562;-40
2023/02/13 02:36:24;;;;;;;0.90;0.78;;;;;;;-1.12;65.23;102366.88;1902266;74;20396;-40
2023/02/13 02:39:11;;;;;;;2.50;0.60;;;;;;;-1.23;65.20;102367.36;1903686;75;21048;-45
2023/02/13 02:41:43;;;;;;;7.90;0.88;;;;;;;-1.26;65.23;102371.11;1930817;74;21563;-43
2023/02/13 02:44:39;;;;;;;3.12;1.00;;;;;;;-1.29;65.20;102359.39;1905777;74;21117;-44
2023/02/13 02:50:19;;;;;;;0.60;0.60;;;;;;;-1.36;64.96;102369.05;1921466;74;21039;-44
2023/02/13 02:52:50;;;;;;;2.50;0.70;;;;;;;-1.35;64.92;102363.03;1902043;75;21104;-44
2023/02/13 02:55:42;;;;;;;0.50;0.50;;;;;;;-1.31;64.68;102358.47;1901455;75;21107;-43
2023/02/13 03:06:57;;;;;;;1.15;1.05;;;;;;;-1.30;64.31;102379.59;1902015;75;21019;-42
2023/02/13 03:15:10;;;;;;;0.70;0.70;;;;;;;-1.37;64.54;102386.65;1914341;75;21373;-43
2023/02/13 03:23:44;;;;;;;2.27;0.70;;;;;;;-1.47;64.20;102391.91;1920694;74;21604;-40
2023/02/13 03:26:52;;;;;;;1.20;0.70;;;;;;;-1.48;64.35;102389.26;1948519;74;21176;-40
2023/02/13 03:32:29;;;;;;;0.55;0.55;;;;;;;-1.44;64.21;102398.88;1919179;74;21126;-41
2023/02/13 03:38:03;;;;;;;1.60;0.63;;;;;;;-1.45;64.19;102407.47;1909188;75;21032;-41
2023/02/13 03:41:17;;;;;;;0.45;0.40;;;;;;;-1.42;64.04;102416.22;1916696;74;21036;-43
2023/02/13 03:43:14;;;;;;;5.05;1.00;;;;;;;-1.41;63.92;102420.54;1929302;74;21139;-43
2023/02/13 03:45:52;;;;;;;3.77;0.65;;;;;;;-1.35;63.93;102421.17;1913783;75;21033;-41
2023/02/13 03:51:31;;;;;;;2.40;0.95;;;;;;;-1.26;63.73;102435.73;1915087;74;21467;-43
2023/02/13 03:54:05;;;;;;;6.50;1.82;;;;;;;-1.22;63.64;102440.21;1915673;74;21102;-41
2023/02/13 03:59:26;;;;;;;1.05;0.62;;;;;;;-1.20;63.63;102451.48;1914513;75;21020;-41
2023/02/13 04:02:03;;;;;;;3.87;0.50;;;;;;;-1.15;63.66;102448.18;1917421;74;21172;-39
2023/02/13 04:04:54;;;;;;;2.90;0.65;;;;;;;-1.11;63.64;102453.50;1914964;74;21086;-39
2023/02/13 04:07:31;;;;;;;1.40;0.60;;;;;;;-1.09;63.66;102450.98;1914642;75;21470;-39
2023/02/13 04:10:05;;;;;;;1.40;0.62;;;;;;;-1.11;63.57;102457.37;1916596;74;21119;-40
2023/02/13 04:12:48;;;;;;;2.55;0.80;;;;;;;-1.08;63.64;102469.56;1917142;74;21502;-46
2023/02/13 04:15:20;;;;;;;3.72;0.60;;;;;;;-1.07;63.54;102472.59;1927522;74;21040;-44
2023/02/13 04:18:02;;;;;;;1.40;0.72;;;;;;;-1.10;63.53;102468.20;1948596;74;20996;-46
2023/02/13 04:20:32;;;;;;;2.87;1.00;;;;;;;-1.17;63.65;102478.72;1937003;74;21106;-44
2023/02/13 04:23:06;;;;;;;1.87;0.95;;;;;;;-1.23;63.70;102479.80;1924970;74;21020;-40
2023/02/13 04:25:38;;;;;;;1.00;0.80;;;;;;;-1.30;63.69;102482.97;1940190;74;21043;-47
2023/02/13 04:28:07;;;;;;;2.47;0.80;;;;;;;-1.40;63.65;102480.87;1914595;75;21047;-57
2023/02/13 04:30:35;;;;;;;0.75;0.60;;;;;;;-1.49;63.62;102486.98;1937073;74;21742;-43
2023/02/13 04:33:04;;;;;;;2.52;1.30;;;;;;;-1.62;63.74;102492.95;1948514;74;21125;-43
2023/02/13 04:35:34;;;;;;;5.35;0.90;;;;;;;-1.76;63.89;102491.10;1948582;74;21122;-42
2023/02/13 04:38:03;;;;;;;4.03;1.95;;;;;;;-1.82;64.00;102497.75;1948646;74;21032;-41
2023/02/13 04:40:31;;;;;;;1.05;0.70;;;;;;;-1.91;64.09;102503.83;1918398;73;21043;-38
2023/02/13 04:43:00;;;;;;;1.70;1.17;;;;;;;-2.02;64.25;102502.97;1914425;74;21082;-41
2023/02/13 04:45:29;;;;;;;3.90;1.05;;;;;;;-2.05;64.36;102511.00;1924397;73;21106;-39
2023/02/13 04:47:58;;;;;;;7.67;1.42;;;;;;;-2.06;64.38;102515.29;1948630;74;21101;-46
2023/02/13 04:50:27;;;;;;;1.55;0.82;;;;;;;-2.08;64.39;102506.61;1925761;74;21434;-37
2023/02/13 04:52:57;;;;;;;3.42;1.30;;;;;;;-2.10;64.46;102513.41;1915129;74;21028;-40
2023/02/13 04:55:27;;;;;;;2.05;1.05;;;;;;;-2.09;64.60;102504.83;1914257;74;21521;-38
2023/02/13 04:57:56;;;;;;;1.40;1.15;;;;;;;-1.97;64.72;102508.34;1914661;75;21762;-39
2023/02/13 05:00:27;;;;;;;1.60;0.90;;;;;;;-1.73;64.74;102523.94;1914626;74;21106;-38
2023/02/13 05:03:01;;;;;;;1.25;0.82;;;;;;;-1.57;64.75;102527.61;1914797;75;21059;-38
2023/02/13 05:05:30;;;;;;;3.35;1.00;;;;;;;-1.35;65.05;102528.42;1914584;74;21540;-38
2023/02/13 05:07:59;;;;;;;3.05;1.37;;;;;;;-0.79;65.44;102534.85;1914617;75;21147;-38
2023/02/13 05:10:29;;;;;;;2.20;0.95;;;;;;;-0.35;65.17;102534.69;1905651;74;21228;-39
2023/02/13 05:12:58;;;;;;;3.05;0.80;;;;;;;-0.17;64.62;102535.70;1905184;75;21493;-39
2023/02/13 05:15:26;;;;;;;1.20;0.88;;;;;;;-0.12;64.08;102536.75;1904446;75;21529;-41
2023/02/13 05:17:55;;;;;;;1.87;1.22;;;;;;;-0.15;63.79;102540.94;1902057;75;21032;-39
2023/02/13 05:20:24;;;;;;;1.02;0.65;;;;;;;-0.20;63.63;102538.21;1902007;75;21008;-40
2023/02/13 05:25:42;;;;;;;1.30;0.80;;;;;;;-0.27;63.58;102551.77;1902064;75;21483;-40
2023/02/13 05:30:57;;;;;;;1.30;0.55;;;;;;;-0.37;63.57;102557.44;1901959;75;21063;-41
2023/02/13 05:33:26;;;;;;;2.37;1.05;;;;;;;-0.38;63.68;102559.58;1901981;75;21109;-41
2023/02/13 05:35:55;;;;;;;7.17;1.45;;;;;;;-0.34;63.66;102560.14;1901994;75;21143;-41
2023/02/13 05:38:23;;;;;;;0.90;0.60;;;;;;;-0.27;63.62;102562.13;1902001;75;21514;-41
2023/02/13 05:40:52;;;;;;;3.72;0.93;;;;;;;-0.16;63.52;102559.48;1902228;75;21088;-40
2023/02/13 05:43:21;;;;;;;2.00;0.65;;;;;;;-0.03;63.42;102556.48;1877311;75;21117;-40
2023/02/13 05:45:51;;;;;;;0.88;0.62;;;;;;;0.20;63.40;102560.24;1901979;75;21196;-40
2023/02/13 05:48:19;;;;;;;1.00;0.60;;;;;;;0.49;63.32;102564.20;1903008;75;21549;-40
2023/02/13 05:50:48;;;;;;;2.10;0.90;;;;;;;0.62;62.76;102565.05;1911757;74;21098;-40
2023/02/13 05:53:16;;;;;;;1.85;0.62;;;;;;;0.74;62.56;102566.73;1935664;74;21035;-40
2023/02/13 05:55:46;;;;;;;1.77;0.90;;;;;;;0.88;62.40;102567.14;1913186;74;21129;-40
2023/02/13 05:58:14;;;;;;;1.82;0.90;;;;;;;0.99;62.25;102571.78;1901823;75;21540;-40
2023/02/13 06:00:43;;;;;;;1.17;0.80;;;;;;;1.14;62.28;102573.13;1901950;75;21035;-40
2023/02/13 06:03:12;;;;;;;1.00;0.80;;;;;;;1.31;62.10;102574.00;1902039;75;21097;-40
2023/02/13 06:05:40;;;;;;;5.22;1.12;;;;;;;1.37;61.96;102575.92;1902031;75;21008;-40
2023/02/13 06:08:09;;;;;;;1.22;0.70;;;;;;;1.49;61.87;102575.82;1902997;74;21043;-39
2023/02/13 06:10:38;;;;;;;1.32;0.85;;;;;;;1.69;61.83;102578.97;1903082;74;21142;-40
2023/02/13 06:13:06;;;;;;;1.25;1.02;;;;;;;1.96;61.87;102574.06;1933647;74;21091;-40
2023/02/13 06:15:35;;;;;;;2.05;0.88;;;;;;;2.22;61.73;102579.92;1926178;74;21113;-40
2023/02/13 06:18:04;;;;;;;4.20;1.55;;;;;;;2.97;61.57;102575.61;1903685;74;21052;-40
2023/02/13 06:20:33;;;;;;;5.45;1.55;;;;;;;4.08;61.70;102576.45;1902599;74;21012;-39
2023/02/13 06:23:01;;;;;;;2.85;1.20;;;;;;;4.64;61.12;102579.52;1903043;75;21540;-39
2023/02/13 06:25:30;;;;;;;3.05;1.00;;;;;;;5.26;60.55;102573.42;1904231;75;21051;-40
2023/02/13 06:27:59;;;;;;;1.62;0.80;;;;;;;5.63;59.50;102574.28;1903061;74;21117;-39
2023/02/13 06:30:28;;;;;;;4.78;1.25;;;;;;;5.77;58.68;102576.18;1902028;75;21044;-39
2023/02/13 06:32:57;;;;;;;1.07;0.80;;;;;;;5.84;58.30;102576.23;1902096;75;21117;-40
2023/02/13 06:35:26;;;;;;;3.60;1.12;;;;;;;5.98;57.48;102574.67;1916964;74;21486;-40
2023/02/13 06:37:55;;;;;;;7.47;1.25;;;;;;;6.54;56.49;102583.40;1935532;74;21506;-40
2023/02/13 06:40:23;;;;;;;3.10;1.00;;;;;;;7.25;55.57;102586.45;1912148;74;21004;-40
2023/02/13 06:42:52;;;;;;;4.80;0.80;;;;;;;7.79;54.47;102576.57;1908871;75;21032;-39
2023/02/13 06:45:21;;;;;;;1.55;0.70;;;;;;;8.44;53.35;102581.00;1903874;74;21498;-39
2023/02/13 06:47:50;;;;;;;5.28;1.12;;;;;;;8.17;52.28;102579.66;1905185;75;21118;-39
2023/02/13 06:50:19;;;;;;;4.00;1.10;;;;;;;7.01;52.08;102588.52;1904324;75;21479;-39
2023/02/13 06:52:50;;;;;;;1.37;0.72;;;;;;;5.87;52.19;102594.14;1905553;74;21676;-39
2023/02/13 06:55:19;;;;;;;1.35;0.70;;;;;;;5.16;53.19;102588.51;1929161;74;21033;-39
2023/02/13 06:57:48;;;;;;;1.12;0.78;;;;;;;4.59;53.61;102604.25;1935471;74;21459;-39
2023/02/13 07:00:18;;;;;;;10.05;1.02;;;;;;;4.18;54.00;102603.13;1914334;74;21137;-38
2023/02/13 07:02:48;;;;;;;2.17;1.05;;;;;;;3.97;54.24;102614.50;1901939;75;21121;-39
2023/02/13 07:05:16;;;;;;;3.58;0.85;;;;;;;3.56;54.72;102623.27;1902030;75;21490;-39
2023/02/13 07:07:45;;;;;;;1.77;0.65;;;;;;;3.33;54.91;102627.98;1902203;75;21055;-39
2023/02/13 07:10:14;;;;;;;2.10;0.80;;;;;;;2.98;55.01;102628.09;1902643;74;21170;-39
2023/02/13 07:12:43;;;;;;;0.75;0.47;;;;;;;2.81;54.76;102626.41;1902396;74;21052;-39
2023/02/13 07:15:12;;;;;;;1.30;0.90;;;;;;;2.52;54.23;102628.31;1904732;75;21016;-39
2023/02/13 07:17:41;;;;;;;5.40;1.02;;;;;;;2.35;54.66;102640.03;1901955;75;21172;-39
2023/02/13 07:20:12;;;;;;;3.92;1.17;;;;;;;2.25;54.95;102637.19;1905089;74;21110;-40
2023/02/13 07:22:40;;;;;;;1.82;0.82;;;;;;;2.21;54.82;102640.53;1903611;74;21025;-40
2023/02/13 07:25:09;;;;;;;2.67;0.95;;;;;;;2.08;55.15;102643.65;1902579;74;21048;-39
2023/02/13 07:27:38;;;;;;;1.60;1.05;;;;;;;2.31;55.40;102639.06;1901982;75;21117;-40
2023/02/13 07:30:07;;;;;;;2.05;1.02;;;;;;;2.57;55.11;102639.71;1901959;75;21035;-40
2023/02/13 07:32:36;;;;;;;5.10;1.20;;;;;;;3.03;54.38;102634.28;1911504;74;21029;-39
2023/02/13 07:35:05;;;;;;;2.75;0.85;;;;;;;4.94;53.25;102628.70;1910409;74;21039;-39
2023/02/13 07:37:33;;;;;;;0.50;0.50;;;;;;;5.34;52.41;102635.77;1905744;74;21128;-39
2023/02/13 07:40:03;;;;;;;3.05;0.93;;;;;;;5.13;51.97;102643.33;1914038;74;21109;-39
2023/02/13 07:42:35;;;;;;;1.80;0.98;;;;;;;6.42;50.82;102635.67;1901979;75;21012;-41
2023/02/13 07:45:05;;;;;;;1.70;0.70;;;;;;;8.42;49.21;102638.33;1901981;75;21475;-39
2023/02/13 07:47:34;;;;;;;2.02;0.80;;;;;;;9.90;47.58;102636.16;1903981;74;21009;-39
2023/02/13 07:50:04;;;;;;;2.10;0.85;;;;;;;11.04;45.60;102637.89;1902246;75;21463;-39
2023/02/13 07:52:33;;;;;;;0.98;0.70;;;;;;;11.01;43.84;102641.86;1902062;75;21036;-39
2023/02/13 07:55:02;;;;;;;0.80;0.60;;;;;;;9.95;44.79;102638.32;1904346;74;21102;-40
2023/02/13 07:57:31;;;;;;;5.60;0.60;;;;;;;9.25;45.52;102640.39;1905888;74;21105;-39
2023/02/13 08:00:00;;;;;;;0.82;0.70;;;;;;;9.24;45.22;102646.55;1903335;74;21037;-38
2023/02/13 08:02:30;;;;;;;1.32;0.88;;;;;;;9.10;43.09;102640.89;1900771;75;21060;-43
2023/02/13 08:04:59;;;;;;;1.37;0.70;;;;;;;9.50;43.13;102648.21;1905158;75;21044;-43
2023/02/13 08:07:27;;;;;;;1.45;0.70;;;;;;;9.84;43.69;102651.98;1904990;75;21078;-45
2023/02/13 08:12:43;;;;;;;2.75;0.80;;;;;;;12.18;39.41;102655.39;1922130;74;21489;-45
2023/02/13 08:15:14;;;;;;;1.77;1.05;;;;;;;13.10;39.15;102652.49;1924739;74;21059;-47
2023/02/13 08:17:43;;;;;;;3.37;0.80;;;;;;;13.63;37.99;102650.56;1924289;74;21050;-47
2023/02/13 08:20:12;;;;;;;3.08;0.88;;;;;;;14.10;37.95;102649.08;1924612;74;21227;-46
2023/02/13 08:22:41;;;;;;;3.20;0.80;;;;;;;14.43;37.50;102647.39;1925069;73;21461;-43
2023/02/13 08:25:10;;;;;;;3.22;0.78;;;;;;;15.10;36.74;102640.39;1924696;74;21043;-44
2023/02/13 08:27:39;;;;;;;2.42;0.80;;;;;;;15.56;35.51;102652.34;1924554;74;21550;-43
2023/02/13 08:30:09;;;;;;;1.62;0.80;;;;;;;15.17;36.26;102652.58;1924502;74;21031;-44
2023/02/13 08:32:38;;;;;;;1.70;0.80;;;;;;;15.47;35.56;102651.28;1926492;73;21137;-43
2023/02/13 08:35:07;;;;;;;1.20;0.53;;;;;;;16.08;34.66;102645.91;1924577;74;21038;-45
2023/02/13 08:37:35;;;;;;;3.80;0.78;;;;;;;16.19;33.67;102647.33;1924709;74;21011;-45
2023/02/13 08:40:05;;;;;;;0.70;0.68;;;;;;;16.43;33.67;102642.57;1924615;74;21431;-40
2023/02/13 08:42:33;;;;;;;1.30;0.50;;;;;;;16.63;32.98;102641.91;1924624;74;21075;-39
2023/02/13 08:45:02;;;;;;;4.75;0.78;;;;;;;16.32;32.06;102643.81;1924879;73;21003;-39
2023/02/13 08:47:31;;;;;;;3.42;1.02;;;;;;;15.94;32.37;102645.04;1924594;74;21118;-39
2023/02/13 08:50:00;;;;;;;2.50;0.80;;;;;;;16.37;32.37;102648.96;1924394;74;21486;-39
2023/02/13 08:52:29;;;;;;;3.60;0.90;;;;;;;16.20;31.97;102649.05;1924547;74;21079;-39
2023/02/13 08:54:57;;;;;;;1.32;0.60;;;;;;;13.68;33.98;102661.05;1925196;73;21035;-39
2023/02/13 08:57:27;;;;;;;2.45;0.60;;;;;;;13.53;33.95;102663.56;1924369;74;21116;-39
2023/02/13 08:59:55;;;;;;;3.25;0.80;;;;;;;14.62;32.75;102655.77;1924430;74;21505;-44
2023/02/13 09:02:24;;;;;;;0.90;0.78;;;;;;;15.58;31.73;102659.80;1944232;73;21015;-39
2023/02/13 09:04:52;;;;;;;1.82;0.60;;;;;;;16.64;30.97;102652.96;1924521;74;21128;-39
2023/02/13 09:07:21;;;;;;;1.57;0.80;;;;;;;16.64;29.32;102656.95;1924658;74;21194;-39
2023/02/13 09:09:50;;;;;;;2.65;0.90;;;;;;;16.30;30.37;102659.38;1924489;74;21055;-39
2023/02/13 09:12:18;;;;;;;1.90;0.55;;;;;;;16.96;30.12;102656.70;1916615;74;21197;-42
2023/02/13 09:14:48;;;;;;;3.58;0.95;;;;;;;14.66;31.26;102657.45;1905301;75;21020;-40
2023/02/13 09:17:18;;;;;;;1.98;0.98;;;;;;;13.71;32.57;102658.34;1912481;74;21451;-40
2023/02/13 09:19:47;;;;;;;2.52;0.80;;;;;;;13.82;31.16;102650.16;1935527;74;21032;-40
2023/02/13 09:22:16;;;;;;;1.87;0.72;;;;;;;14.40;31.27;102655.87;1935517;74;21008;-40
2023/02/13 09:24:44;;;;;;;1.57;0.70;;;;;;;13.11;32.66;102648.50;1935597;74;21492;-40
2023/02/13 09:27:13;;;;;;;2.87;0.88;;;;;;;11.40;33.75;102658.16;1917421;74;21036;-39
2023/02/13 09:29:42;;;;;;;7.10;1.50;;;;;;;10.24;35.04;102659.64;1902021;75;21090;-39
2023/02/13 09:32:10;;;;;;;2.65;0.80;;;;;;;9.30;35.84;102665.81;1902026;75;21036;-39
2023/02/13 09:34:39;;;;;;;1.37;0.65;;;;;;;8.26;36.81;102660.60;1902019;75;21044;-40
2023/02/13 09:37:07;;;;;;;2.00;0.62;;;;;;;7.46;37.56;102673.89;1904132;74;21038;-40
2023/02/13 09:39:36;;;;;;;1.90;0.88;;;;;;;7.43;38.41;102663.38;1902012;74;21113;-41
2023/02/13 09:42:08;;;;;;;0.60;0.57;;;;;;;8.42;37.31;102656.26;1902112;75;20995;-42
2023/02/13 09:44:42;;;;;;;4.67;1.00;;;;;;;10.20;36.16;102661.88;1900687;75;21108;-41
2023/02/13 09:47:15;;;;;;;5.28;1.22;;;;;;;9.92;35.78;102662.46;1902396;75;21022;-42
2023/02/13 09:49:46;;;;;;;2.20;1.00;;;;;;;8.83;36.41;102668.95;1935014;74;21048;-41
2023/02/13 09:52:16;;;;;;;2.70;0.80;;;;;;;8.03;37.20;102673.66;1935628;74;21059;-39
2023/02/13 09:54:44;;;;;;;2.75;0.90;;;;;;;10.34;36.04;102660.02;1933124;74;21462;-40
2023/02/13 09:57:19;;;;;;;0.85;0.70;;;;;;;10.47;35.63;102658.62;1935748;74;21080;-39
2023/02/13 10:00:12;;;;;;;1.55;0.60;;;;;;;11.55;35.00;102662.38;1930750;74;21106;-39
2023/02/13 10:02:48;;;;;;;1.00;0.60;;;;;;;12.69;33.59;102656.31;1855102;74;21097;-39
2023/02/13 10:05:28;;;;;;;2.35;0.60;;;;;;;12.48;33.47;102654.88;1932519;74;21114;-39
2023/02/13 10:08:08;;;;;;;3.12;1.50;;;;;;;12.31;33.71;102655.62;1934698;74;21036;-39
2023/02/13 10:11:02;;;;;;;3.17;0.90;;;;;;;10.93;34.57;102658.22;1935557;74;21111;-39
2023/02/13 10:13:38;;;;;;;;;;;;;;;9.53;35.94;102662.64;1890932;74;21475;-39
2023/02/13 10:16:18;;;;;;;2.50;0.90;;;;;;;8.69;37.06;102671.59;1903591;75;20123;-39
2023/02/13 10:18:49;;;;;;;2.00;1.02;;;;;;;8.85;37.55;102668.50;1901982;75;21039;-39
2023/02/13 10:21:24;;;;;;;1.35;0.65;;;;;;;11.35;34.97;102671.84;1902111;75;21028;-39
2023/02/13 10:24:01;;;;;;;4.28;0.98;;;;;;;13.08;33.33;102665.73;1904487;75;20992;-39
2023/02/13 10:26:48;;;;;;;1.52;0.62;;;;;;;12.25;34.14;102661.87;1877708;74;21044;-39
2023/02/13 10:32:06;;;;;;;1.27;0.70;;;;;;;9.22;36.26;102679.84;1905237;75;21021;-39
2023/02/13 10:34:40;;;;;;;1.50;0.90;;;;;;;9.74;36.16;102672.62;1924829;74;21487;-39
2023/02/13 10:37:15;;;;;;;2.33;0.70;;;;;;;11.83;34.18;102672.57;1933584;74;21091;-39
2023/02/13 10:39:49;;;;;;;1.52;0.60;;;;;;;13.55;32.70;102664.86;1935361;74;21020;-39
2023/02/13 10:42:33;;;;;;;3.52;0.85;;;;;;;14.97;32.04;102657.09;1935515;74;21114;-39
2023/02/13 10:45:11;;;;;;;2.15;1.00;;;;;;;15.74;31.52;102655.80;1907067;74;21587;-39
2023/02/13 10:47:54;;;;;;;2.77;0.80;;;;;;;15.79;31.29;102659.66;1905165;75;21580;-37
2023/02/13 10:50:26;;;;;;;1.52;0.80;;;;;;;13.60;32.29;102670.94;1903598;74;21103;-37
2023/02/13 10:53:16;;;;;;;1.65;0.60;;;;;;;11.55;33.86;102684.34;1905147;74;21029;-38
2023/02/13 10:55:53;;;;;;;2.20;1.10;;;;;;;10.23;34.93;102682.89;1898124;75;21033;-38
2023/02/13 10:58:24;;;;;;;2.37;0.88;;;;;;;10.61;35.37;102676.52;1909580;74;21056;-39
2023/02/13 11:01:08;;;;;;;2.15;0.90;;;;;;;10.67;35.23;102671.64;1920684;74;21083;-40
2023/02/13 11:03:36;;;;;;;;;;;;;;;11.38;34.67;102681.05;1929668;74;21464;-38
2023/02/13 11:06:05;;;;;;;;;;;;;;;10.39;34.97;102666.59;1935644;74;20128;-38
2023/02/13 11:08:37;;;;;;;;;;;;;;;10.71;35.07;102678.17;1904777;75;20115;-40
2023/02/13 11:11:07;;;;;;;;;;;;;;;11.06;34.46;102680.05;1904973;74;20768;-39
2023/02/13 11:13:34;;;;;;;;;;;;;;;11.50;34.27;102672.97;1907309;74;20153;-39
2023/02/13 11:16:04;;;;;;;;;;;;;;;11.42;34.48;102682.75;1906360;75;20109;-39
2023/02/13 11:18:36;;;;;;;;;;;;;;;11.30;34.57;102677.15;1907422;75;20119;-43
2023/02/13 11:21:08;;;;;;;;;;;;;;;10.38;35.40;102678.89;1904801;75;20149;-43
2023/02/13 11:23:37;;;;;;;;;;;;;;;10.27;35.73;102676.71;1905709;74;20115;-39
2023/02/13 11:26:08;;;;;;;;;;;;;;;11.03;35.48;102670.84;1904858;75;20192;-39
2023/02/13 11:28:37;;;;;;;;;;;;;;;11.67;34.90;102674.52;1904899;75;20134;-40
2023/02/13 11:31:09;;;;;;;;;;;;;;;11.52;35.01;102680.41;1904518;75;20115;-41
2023/02/13 11:33:37;;;;;;;;;;;;;;;10.77;35.63;102676.81;1907609;75;20115;-39
2023/02/13 11:36:09;;;;;;;;;;;;;;;9.77;36.49;102685.78;1911704;75;20202;-39
2023/02/13 11:38:37;;;;;;;;;;;;;;;9.16;37.10;102683.78;1900140;74;20121;-40
2023/02/13 11:41:10;;;;;;;;;;;;;;;8.91;36.14;102682.06;1914746;74;20113;-40
2023/02/13 11:43:42;;;;;;;;;;;;;;;9.35;37.07;102683.32;1908462;74;20113;-39
2023/02/13 11:46:14;;;;;;;;;;;;;;;9.66;36.27;102681.45;1894784;75;20168;-39
2023/02/13 11:48:43;;;;;;;;;;;;;;;10.08;35.70;102676.42;1907839;75;20117;-39
2023/02/13 11:51:10;;;;;;;;;;;;;;;10.05;35.56;102673.34;1907993;75;20101;-39
2023/02/13 11:53:39;;;;;;;;;;;;;;;9.54;36.07;102667.48;1907942;75;20117;-38
2023/02/13 11:56:11;;;;;;;;;;;;;;;9.27;36.62;102672.80;1906008;75;20123;-39
2023/02/13 11:58:40;;;;;;;;;;;;;;;9.56;36.61;102674.47;1903716;75;20443;-38
2023/02/13 12:01:09;;;;;;;;;;;;;;;9.14;36.90;102673.72;1904729;75;20193;-38
2023/02/13 12:03:37;;;;;;;;;;;;;;;9.38;36.69;102682.42;1896955;75;20149;-39
2023/02/13 12:06:07;;;;;;;;;;;;;;;9.72;36.34;102678.34;1904789;75;20103;-39
2023/02/13 12:08:36;;;;;;;;;;;;;;;9.81;36.10;102678.30;1909605;75;20122;-39
2023/02/13 12:11:05;;;;;;;;;;;;;;;9.91;36.29;102664.68;1911921;75;20122;-39
2023/02/13 12:13:35;;;;;;;;;;;;;;;9.81;36.74;102667.36;1909082;75;20149;-45
2023/02/13 12:16:04;;;;;;;;;;;;;;;9.35;37.27;102678.06;1918442;74;20153;-38
2023/02/13 12:18:36;;;;;;;;;;;;;;;8.67;37.83;102675.98;1918844;75;20122;-38
2023/02/13 12:21:08;;;;;;;;;;;;;;;7.95;38.51;102675.41;1901361;75;20121;-38
2023/02/13 12:23:44;;;;;;;;;;;;;;;7.19;38.91;102683.34;1881861;76;20149;-38
2023/02/13 12:26:13;;;;;;;;;;;;;;;6.64;39.44;102679.02;1883995;75;20117;-38
2023/02/13 12:28:42;;;;;;;;;;;;;;;6.30;39.77;102685.26;1884874;75;20117;-38
2023/02/13 12:31:14;;;;;;;;;;;;;;;5.93;40.22;102685.70;1908185;75;20162;-38
2023/02/13 12:34:02;;;;;;;;;;;;;;;5.67;40.61;102682.78;1913529;75;20145;-38
2023/02/13 12:36:34;;;;;;;;;;;;;;;5.54;40.64;102692.64;1912405;75;20194;-38
2023/02/13 12:39:06;;;;;;;;;;;;;;;5.44;40.94;102699.89;1914022;75;20122;-38
2023/02/13 12:41:36;;;;;;;;;;;;;;;5.32;41.00;102700.17;1867899;76;20144;-38
2023/02/13 12:44:08;;;;;;;;;;;;;;;5.18;41.27;102693.87;1882084;75;20147;-38
2023/02/13 12:46:37;;;;;;;;;;;;;;;5.00;41.37;102690.58;1881857;76;20108;-38